createdAt,value
2022-09-21T00:01:30.810Z,67.52
2022-09-21T00:04:01.688Z,67.56
2022-09-21T00:06:32.444Z,67.20
2022-09-21T00:09:04.732Z,67.50
2022-09-21T00:11:36.299Z,67.75
2022-09-21T00:14:10.951Z,67.56
2022-09-21T00:16:40.203Z,67.83
2022-09-21T00:19:08.330Z,67.65
2022-09-21T00:21:38.569Z,67.57
2022-09-21T00:24:07.833Z,67.71
2022-09-21T00:26:35.484Z,68.05
2022-09-21T00:29:04.901Z,68.37
2022-09-21T00:31:37.927Z,68.44
2022-09-21T00:34:08.487Z,68.55
2022-09-21T00:36:37.501Z,68.81
2022-09-21T00:39:10.653Z,68.80
2022-09-21T00:41:39.152Z,69.24
2022-09-21T00:44:30.780Z,68.93
2022-09-21T00:47:12.682Z,69.47
2022-09-21T00:49:50.090Z,69.45
2022-09-21T00:52:20.402Z,69.73
2022-09-21T00:54:59.676Z,69.78
2022-09-21T00:57:31.476Z,69.95
2022-09-21T01:00:02.793Z,69.78
2022-09-21T01:02:30.848Z,69.61
2022-09-21T01:05:00.191Z,69.64
2022-09-21T01:07:32.734Z,69.48
2022-09-21T01:10:06.553Z,69.62
2022-09-21T01:12:55.483Z,69.67
2022-09-21T01:15:35.289Z,69.40
2022-09-21T01:18:42.758Z,68.98
2022-09-21T01:21:16.927Z,69.10
2022-09-21T01:23:59.817Z,68.99
2022-09-21T01:26:46.730Z,68.86
2022-09-21T01:29:21.326Z,68.94
2022-09-21T01:32:33.022Z,68.95
2022-09-21T01:35:16.314Z,68.92
2022-09-21T01:37:58.906Z,69.10
2022-09-21T01:40:41.982Z,69.40
2022-09-21T01:43:26.879Z,69.53
2022-09-21T01:46:02.485Z,69.78
2022-09-21T01:48:35.894Z,70.10
2022-09-21T01:51:15.777Z,70.05
2022-09-21T01:53:57.979Z,70.19
2022-09-21T01:56:41.076Z,70.04
2022-09-21T01:59:18.819Z,69.58
2022-09-21T02:01:54.403Z,69.52
2022-09-21T02:04:23.715Z,69.39
2022-09-21T02:06:53.106Z,69.33
2022-09-21T02:09:23.094Z,69.34
2022-09-21T02:11:52.541Z,69.46
2022-09-21T02:14:26.037Z,69.41
2022-09-21T02:17:26.493Z,69.56
2022-09-21T02:19:59.280Z,69.75
2022-09-21T02:22:42.482Z,69.60
2022-09-21T02:25:45.678Z,69.30
2022-09-21T02:28:51.808Z,69.10
2022-09-21T02:32:12.448Z,69.16
2022-09-21T02:35:00.916Z,69.21
2022-09-21T02:38:00.259Z,68.92
2022-09-21T02:40:41.139Z,68.99
2022-09-21T02:43:21.337Z,69.20
2022-09-21T02:46:00.159Z,69.07
2022-09-21T02:48:43.188Z,68.76
2022-09-21T02:51:20.427Z,69.04
2022-09-21T02:53:51.835Z,69.02
2022-09-21T02:56:20.391Z,68.77
2022-09-21T02:58:54.791Z,69.15
2022-09-21T03:01:25.638Z,69.12
2022-09-21T03:03:53.993Z,69.11
2022-09-21T03:06:21.765Z,68.99
2022-09-21T03:08:49.847Z,69.11
2022-09-21T03:11:19.112Z,69.18
2022-09-21T03:13:47.370Z,69.46
2022-09-21T03:16:15.718Z,69.62
2022-09-21T03:18:44.551Z,69.42
2022-09-21T03:21:13.315Z,69.94
2022-09-21T03:23:41.540Z,69.80
2022-09-21T03:26:10.488Z,69.80
2022-09-21T03:28:39.117Z,69.80
2022-09-21T03:31:07.534Z,69.89
2022-09-21T03:33:35.371Z,69.81
2022-09-21T03:36:08.824Z,69.64
2022-09-21T03:38:39.025Z,69.54
2022-09-21T03:41:07.767Z,69.74
2022-09-21T03:43:35.542Z,69.83
2022-09-21T03:46:04.045Z,69.55
2022-09-21T03:48:33.109Z,69.85
2022-09-21T03:51:01.596Z,69.74
2022-09-21T03:53:34.862Z,70.06
2022-09-21T03:56:03.254Z,69.90
2022-09-21T03:58:31.134Z,69.83
2022-09-21T04:01:04.792Z,70.03
2022-09-21T04:03:32.727Z,70.12
2022-09-21T04:06:00.672Z,70.14
2022-09-21T04:08:28.540Z,70.43
2022-09-21T04:10:56.738Z,70.39
2022-09-21T04:13:25.310Z,70.84
2022-09-21T04:15:53.665Z,70.43
2022-09-21T04:18:24.895Z,70.24
2022-09-21T04:20:54.890Z,70.44
2022-09-21T04:23:23.664Z,70.27
2022-09-21T04:25:52.091Z,69.98
2022-09-21T04:28:20.168Z,69.80
2022-09-21T04:30:48.018Z,69.86
2022-09-21T04:33:23.083Z,69.54
2022-09-21T04:35:58.012Z,69.96
2022-09-21T04:38:25.985Z,70.05
2022-09-21T04:40:57.408Z,70.30
2022-09-21T04:43:28.733Z,70.48
2022-09-21T04:45:56.297Z,70.36
2022-09-21T04:48:26.864Z,69.93
2022-09-21T04:50:54.345Z,70.65
2022-09-21T04:53:21.906Z,70.49
2022-09-21T04:55:49.974Z,70.72
2022-09-21T04:58:22.451Z,70.84
2022-09-21T05:00:54.220Z,70.80
2022-09-21T05:03:24.268Z,70.93
2022-09-21T05:05:56.251Z,70.68
2022-09-21T05:08:44.409Z,70.59
2022-09-21T05:11:16.294Z,70.38
2022-09-21T05:13:43.916Z,70.26
2022-09-21T05:16:12.553Z,70.06
2022-09-21T05:18:41.751Z,70.11
2022-09-21T05:21:11.899Z,69.74
2022-09-21T05:23:40.023Z,69.85
2022-09-21T05:26:08.230Z,69.82
2022-09-21T05:28:40.337Z,69.43
2022-09-21T05:31:32.415Z,69.47
2022-09-21T05:34:36.438Z,69.41
2022-09-21T05:37:45.034Z,69.25
2022-09-21T05:40:18.889Z,69.17
2022-09-21T05:42:47.251Z,69.38
2022-09-21T05:45:21.558Z,70.06
2022-09-21T05:48:13.987Z,69.55
2022-09-21T05:50:52.637Z,69.53
2022-09-21T05:53:49.962Z,69.07
2022-09-21T05:56:48.926Z,69.09
2022-09-21T05:59:38.618Z,68.77
2022-09-21T06:02:25.312Z,68.69
2022-09-21T06:05:00.347Z,68.88
2022-09-21T06:07:27.970Z,68.74
2022-09-21T06:09:56.380Z,68.24
2022-09-21T06:12:24.406Z,68.51
2022-09-21T06:14:52.152Z,67.87
2022-09-21T06:17:20.080Z,67.51
2022-09-21T06:19:47.723Z,67.42
2022-09-21T06:22:15.265Z,67.40
2022-09-21T06:24:42.925Z,67.38
2022-09-21T06:27:10.489Z,67.68
2022-09-21T06:29:37.926Z,67.34
2022-09-21T06:32:05.691Z,66.94
2022-09-21T06:34:33.279Z,66.75
2022-09-21T06:37:01.432Z,66.13
2022-09-21T06:39:30.790Z,65.70
2022-09-21T06:41:59.547Z,65.58
2022-09-21T06:44:27.514Z,65.39
2022-09-21T06:46:55.275Z,65.12
2022-09-21T06:49:22.774Z,63.77
2022-09-21T06:51:50.648Z,64.84
2022-09-21T06:54:19.869Z,64.51
2022-09-21T06:56:48.429Z,64.37
2022-09-21T06:59:21.139Z,64.21
2022-09-21T07:01:49.074Z,63.96
2022-09-21T07:04:16.761Z,63.50
2022-09-21T07:06:44.165Z,63.18
2022-09-21T07:12:00.377Z,63.31
2022-09-21T07:14:28.167Z,62.70
2022-09-21T07:16:55.825Z,62.80
2022-09-21T07:19:23.255Z,62.83
2022-09-21T07:21:53.320Z,61.98
2022-09-21T07:24:20.822Z,61.34
2022-09-21T07:26:50.282Z,60.72
2022-09-21T07:29:18.526Z,57.81
2022-09-21T07:31:48.941Z,57.22
2022-09-21T07:34:16.481Z,53.11
2022-09-21T07:36:44.627Z,52.05
2022-09-21T07:39:12.648Z,52.02
2022-09-21T07:41:40.192Z,51.78
2022-09-21T07:44:07.797Z,52.41
2022-09-21T07:46:41.251Z,52.28
2022-09-21T07:49:13.916Z,52.00
2022-09-21T07:51:46.628Z,50.78
2022-09-21T07:54:16.220Z,51.67
2022-09-21T07:57:03.564Z,51.43
2022-09-21T07:59:33.052Z,51.00
2022-09-21T08:02:01.106Z,54.92
2022-09-21T08:04:29.701Z,63.76
2022-09-21T08:06:57.481Z,56.58
2022-09-21T08:09:30.388Z,51.34
2022-09-21T08:12:01.712Z,55.07
2022-09-21T08:14:29.827Z,51.10
2022-09-21T08:16:57.867Z,51.80
2022-09-21T08:19:27.300Z,50.97
2022-09-21T08:21:57.864Z,51.53
2022-09-21T08:24:29.214Z,51.17
2022-09-21T08:26:57.932Z,51.52
2022-09-21T08:29:26.644Z,51.14
2022-09-21T08:31:54.345Z,52.53
2022-09-21T08:34:23.484Z,52.26
2022-09-21T08:36:55.232Z,54.02
2022-09-21T08:39:24.101Z,53.21
2022-09-21T08:42:39.590Z,52.92
2022-09-21T08:45:17.496Z,52.59
2022-09-21T08:47:52.629Z,52.46
2022-09-21T08:50:22.889Z,54.33
2022-09-21T08:52:58.299Z,53.03
2022-09-21T08:55:26.026Z,52.25
2022-09-21T08:57:54.149Z,53.22
2022-09-21T09:00:22.085Z,52.78
2022-09-21T09:03:11.329Z,51.17
2022-09-21T09:06:10.246Z,51.80
2022-09-21T09:09:02.575Z,51.08
2022-09-21T09:11:30.459Z,52.44
2022-09-21T09:14:25.535Z,52.19
2022-09-21T09:17:33.917Z,52.47
2022-09-21T09:20:16.556Z,52.81
2022-09-21T09:23:03.345Z,52.89
2022-09-21T09:25:39.060Z,53.01
2022-09-21T09:28:14.394Z,53.43
2022-09-21T09:30:43.247Z,53.01
2022-09-21T09:33:21.920Z,53.24
2022-09-21T09:35:51.402Z,52.56
2022-09-21T09:38:28.699Z,52.30
2022-09-21T09:41:17.438Z,53.08
2022-09-21T09:43:57.509Z,54.15
2022-09-21T09:46:40.335Z,53.51
2022-09-21T09:49:19.903Z,53.34
2022-09-21T09:51:49.117Z,53.07
2022-09-21T09:54:20.467Z,52.66
2022-09-21T09:56:47.937Z,52.53
2022-09-21T09:59:33.372Z,52.47
2022-09-21T10:02:04.184Z,53.07
2022-09-21T10:04:35.462Z,52.90
2022-09-21T10:07:03.050Z,52.55
2022-09-21T10:09:34.820Z,51.83
2022-09-21T10:12:24.518Z,51.73
2022-09-21T10:15:01.876Z,50.63
2022-09-21T10:17:29.468Z,49.99
2022-09-21T10:20:04.966Z,50.52
2022-09-21T10:22:32.485Z,49.74
2022-09-21T10:25:02.125Z,50.04
2022-09-21T10:27:35.972Z,49.79
2022-09-21T10:30:04.240Z,49.42
2022-09-21T10:32:31.753Z,49.13
2022-09-21T10:35:08.251Z,49.82
2022-09-21T10:37:41.412Z,49.61
2022-09-21T10:40:27.333Z,49.25
2022-09-21T10:43:01.857Z,49.19
2022-09-21T10:45:37.463Z,48.60
2022-09-21T10:48:17.386Z,48.32
2022-09-21T10:50:47.344Z,48.54
2022-09-21T10:53:35.553Z,48.80
2022-09-21T10:56:17.749Z,49.44
2022-09-21T10:59:12.066Z,48.66
2022-09-21T11:01:46.166Z,47.37
2022-09-21T11:04:39.206Z,47.25
2022-09-21T11:07:48.844Z,47.17
2022-09-21T11:10:22.068Z,47.99
2022-09-21T11:13:08.334Z,47.22
2022-09-21T11:15:54.840Z,47.12
2022-09-21T11:18:50.467Z,46.69
2022-09-21T11:21:34.966Z,47.04
2022-09-21T11:24:08.460Z,46.07
2022-09-21T11:26:49.810Z,46.55
2022-09-21T11:29:55.655Z,46.86
2022-09-21T11:32:45.432Z,46.95
2022-09-21T11:35:33.185Z,47.47
2022-09-21T11:38:12.628Z,46.93
2022-09-21T11:40:40.592Z,46.96
2022-09-21T11:43:22.803Z,46.94
2022-09-21T11:46:07.234Z,47.01
2022-09-21T11:48:47.008Z,46.88
2022-09-21T11:51:39.135Z,46.97
2022-09-21T11:54:26.586Z,47.67
2022-09-21T11:57:20.545Z,47.68
2022-09-21T12:00:08.027Z,48.27
2022-09-21T12:02:55.391Z,48.19
2022-09-21T12:05:26.584Z,48.47
2022-09-21T12:08:03.928Z,48.70
2022-09-21T12:11:00.874Z,48.59
2022-09-21T12:14:06.084Z,48.50
2022-09-21T12:17:05.688Z,48.77
2022-09-21T12:20:06.610Z,48.50
2022-09-21T12:22:47.770Z,48.78
2022-09-21T12:25:23.010Z,48.71
2022-09-21T12:28:01.053Z,48.74
2022-09-21T12:30:36.935Z,49.05
2022-09-21T12:33:43.387Z,47.79
2022-09-21T12:36:41.116Z,48.34
2022-09-21T12:39:29.549Z,49.10
2022-09-21T12:42:11.787Z,49.16
2022-09-21T12:44:55.121Z,48.97
2022-09-21T12:47:38.528Z,48.42
2022-09-21T12:50:32.903Z,48.12
2022-09-21T12:53:02.217Z,47.97
2022-09-21T12:55:51.440Z,48.35
2022-09-21T12:58:30.195Z,48.53
2022-09-21T13:01:33.183Z,48.04
2022-09-21T13:04:30.792Z,48.57
2022-09-21T13:07:18.470Z,48.04
2022-09-21T13:09:52.182Z,48.26
2022-09-21T13:12:28.849Z,48.26
2022-09-21T13:15:05.155Z,48.66
2022-09-21T13:17:34.649Z,48.52
2022-09-21T13:20:17.720Z,48.23
2022-09-21T13:22:46.335Z,47.95
2022-09-21T13:25:39.282Z,47.87
2022-09-21T13:28:20.274Z,48.29
2022-09-21T13:31:39.918Z,47.77
2022-09-21T13:34:32.960Z,48.35
2022-09-21T13:37:16.449Z,48.51
2022-09-21T13:39:59.107Z,48.35
2022-09-21T13:42:33.342Z,48.62
2022-09-21T13:45:14.526Z,48.55
2022-09-21T13:47:54.187Z,48.79
2022-09-21T13:50:33.051Z,48.98
2022-09-21T13:53:28.858Z,48.82
2022-09-21T13:56:17.105Z,48.97
2022-09-21T13:58:48.328Z,48.77
2022-09-21T14:01:46.650Z,49.03
2022-09-21T14:04:38.376Z,49.29
2022-09-21T14:07:09.361Z,49.62
2022-09-21T14:10:15.919Z,50.05
2022-09-21T14:12:45.673Z,49.97
2022-09-21T14:15:20.113Z,50.23
2022-09-21T14:18:16.223Z,50.50
2022-09-21T14:21:09.591Z,50.71
2022-09-21T14:23:40.092Z,50.41
2022-09-21T14:26:34.013Z,50.35
2022-09-21T14:29:17.953Z,50.36
2022-09-21T14:31:46.470Z,50.25
2022-09-21T14:34:23.856Z,49.75
2022-09-21T14:36:56.539Z,49.50
2022-09-21T14:39:35.694Z,49.49
2022-09-21T14:42:13.018Z,49.57
2022-09-21T14:44:42.731Z,49.93
2022-09-21T14:47:21.500Z,49.45
2022-09-21T14:50:22.982Z,49.09
2022-09-21T14:53:14.816Z,48.77
2022-09-21T14:56:10.462Z,48.32
2022-09-21T14:59:16.027Z,48.01
2022-09-21T15:01:59.919Z,47.19
2022-09-21T15:05:13.307Z,47.38
2022-09-21T15:08:11.851Z,47.25
2022-09-21T15:11:39.136Z,47.18
2022-09-21T15:14:33.512Z,47.18
2022-09-21T15:17:26.411Z,46.90
2022-09-21T15:19:59.668Z,46.62
2022-09-21T15:22:28.698Z,46.41
2022-09-21T15:25:04.687Z,46.13
2022-09-21T15:27:38.254Z,46.42
2022-09-21T15:30:13.390Z,46.62
2022-09-21T15:32:46.807Z,46.85
2022-09-21T15:35:28.019Z,46.34
2022-09-21T15:38:03.092Z,46.35
2022-09-21T15:40:37.906Z,46.51
2022-09-21T15:43:12.280Z,46.46
2022-09-21T15:45:58.343Z,46.81
2022-09-21T15:48:27.229Z,47.20
2022-09-21T15:51:00.232Z,47.21
2022-09-21T15:53:33.884Z,47.21
2022-09-21T15:56:03.284Z,47.41
2022-09-21T15:58:37.957Z,49.23
2022-09-21T16:01:13.462Z,50.18
2022-09-21T16:03:43.043Z,50.33
2022-09-21T16:06:22.835Z,51.05
2022-09-21T16:08:51.087Z,50.80
2022-09-21T16:11:28.546Z,51.03
2022-09-21T16:14:38.275Z,51.37
2022-09-21T16:17:25.836Z,52.01
2022-09-21T16:19:56.129Z,51.69
2022-09-21T16:22:45.292Z,51.63
2022-09-21T16:25:24.054Z,52.18
2022-09-21T16:28:04.888Z,51.69
2022-09-21T16:30:53.146Z,51.40
2022-09-21T16:33:47.779Z,51.37
2022-09-21T16:36:19.015Z,51.14
2022-09-21T16:38:56.284Z,51.18
2022-09-21T16:41:32.567Z,51.43
2022-09-21T16:44:01.115Z,51.22
2022-09-21T16:46:29.247Z,51.33
2022-09-21T16:48:57.393Z,51.42
2022-09-21T16:51:27.355Z,52.03
2022-09-21T16:54:02.939Z,51.23
2022-09-21T16:56:30.559Z,51.70
2022-09-21T16:59:00.518Z,51.92
2022-09-21T17:01:28.640Z,52.45
2022-09-21T17:03:57.100Z,52.20
2022-09-21T17:06:24.500Z,52.20
2022-09-21T17:08:51.976Z,52.20
2022-09-21T17:11:20.426Z,52.37
2022-09-21T17:13:51.375Z,52.56
2022-09-21T17:16:20.565Z,53.00
2022-09-21T17:18:49.268Z,53.37
2022-09-21T17:21:17.030Z,53.38
2022-09-21T17:23:45.766Z,53.84
2022-09-21T17:26:21.594Z,53.96
2022-09-21T17:28:49.083Z,53.73
2022-09-21T17:31:16.968Z,53.69
2022-09-21T17:33:45.904Z,53.66
2022-09-21T17:36:18.372Z,53.25
2022-09-21T17:38:46.057Z,53.17
2022-09-21T17:41:23.905Z,53.64
2022-09-21T17:44:15.264Z,53.77
2022-09-21T17:47:09.264Z,53.98
2022-09-21T17:49:37.827Z,54.20
2022-09-21T17:52:38.665Z,54.32
2022-09-21T17:55:09.087Z,54.48
2022-09-21T17:57:42.316Z,54.71
2022-09-21T18:00:19.722Z,54.41
2022-09-21T18:02:48.347Z,54.71
2022-09-21T18:05:30.191Z,54.94
2022-09-21T18:07:57.930Z,54.82
2022-09-21T18:10:27.412Z,55.19
2022-09-21T18:13:13.850Z,55.54
2022-09-21T18:16:06.616Z,55.38
2022-09-21T18:18:49.056Z,54.99
2022-09-21T18:21:23.126Z,55.52
2022-09-21T18:24:19.428Z,55.27
2022-09-21T18:26:49.225Z,55.36
2022-09-21T18:29:39.465Z,55.50
2022-09-21T18:32:34.540Z,55.46
2022-09-21T18:35:24.140Z,56.52
2022-09-21T18:38:03.743Z,54.85
2022-09-21T18:40:36.982Z,54.25
2022-09-21T18:43:08.193Z,53.49
2022-09-21T18:45:46.208Z,54.57
2022-09-21T18:48:35.030Z,53.89
2022-09-21T18:51:14.573Z,53.44
2022-09-21T18:53:54.060Z,54.09
2022-09-21T18:56:22.946Z,53.71
2022-09-21T18:58:50.816Z,53.81
2022-09-21T19:01:24.138Z,54.29
2022-09-21T19:03:51.974Z,53.77
2022-09-21T19:06:34.224Z,53.76
2022-09-21T19:09:01.784Z,53.66
2022-09-21T19:11:47.932Z,53.39
2022-09-21T19:14:18.147Z,53.72
2022-09-21T19:17:07.253Z,54.04
2022-09-21T19:20:24.161Z,53.41
2022-09-21T19:23:13.771Z,53.38
2022-09-21T19:25:49.713Z,52.97
2022-09-21T19:28:41.746Z,53.50
2022-09-21T19:31:19.432Z,53.64
2022-09-21T19:33:50.856Z,53.56
2022-09-21T19:36:19.857Z,53.73
2022-09-21T19:38:47.782Z,53.99
2022-09-21T19:41:27.192Z,54.32
2022-09-21T19:44:35.584Z,54.14
2022-09-21T19:47:31.858Z,54.54
2022-09-21T19:50:23.740Z,54.36
2022-09-21T19:53:18.566Z,54.26
2022-09-21T19:56:07.554Z,54.17
2022-09-21T19:59:14.948Z,54.34
2022-09-21T20:01:52.849Z,54.19
2022-09-21T20:04:38.810Z,53.74
2022-09-21T20:07:49.463Z,53.67
2022-09-21T20:10:49.250Z,53.78
2022-09-21T20:14:01.297Z,53.23
2022-09-21T20:16:36.802Z,53.36
2022-09-21T20:19:31.435Z,53.94
2022-09-21T20:22:09.304Z,52.91
2022-09-21T20:24:43.658Z,52.92
2022-09-21T20:27:37.851Z,52.76
2022-09-21T20:30:12.291Z,53.09
2022-09-21T20:32:42.509Z,53.23
2022-09-21T20:35:23.793Z,53.21
2022-09-21T20:37:57.478Z,53.29
2022-09-21T20:40:29.632Z,53.33
2022-09-21T20:42:58.532Z,53.42
2022-09-21T20:45:26.916Z,53.72
2022-09-21T20:47:55.565Z,53.92
2022-09-21T20:50:26.970Z,53.61
2022-09-21T20:52:54.488Z,53.87
2022-09-21T20:55:21.780Z,53.64
2022-09-21T20:57:49.290Z,53.33
2022-09-21T21:00:17.475Z,53.29
2022-09-21T21:02:45.240Z,53.65
2022-09-21T21:05:12.800Z,52.91
2022-09-21T21:07:43.698Z,53.05
2022-09-21T21:10:16.839Z,53.38
2022-09-21T21:12:44.998Z,53.29
2022-09-21T21:15:12.985Z,53.66
2022-09-21T21:17:42.505Z,52.91
2022-09-21T21:20:10.965Z,52.87
2022-09-21T21:22:38.167Z,52.82
2022-09-21T21:25:05.833Z,52.33
2022-09-21T21:27:33.547Z,51.69
2022-09-21T21:30:02.415Z,51.89
2022-09-21T21:32:32.699Z,51.38
2022-09-21T21:35:00.145Z,50.87
2022-09-21T21:37:28.783Z,49.52
2022-09-21T21:39:59.407Z,50.48
2022-09-21T21:42:28.766Z,50.98
2022-09-21T21:44:56.901Z,50.87
2022-09-21T21:47:40.871Z,50.78
2022-09-21T21:50:10.809Z,50.93
2022-09-21T21:52:41.076Z,50.88
2022-09-21T21:55:09.084Z,51.00
2022-09-21T21:57:38.844Z,51.08
2022-09-21T22:00:10.382Z,51.73
2022-09-21T22:02:38.324Z,52.79
2022-09-21T22:05:06.453Z,53.34
2022-09-21T22:07:34.028Z,53.94
2022-09-21T22:10:01.556Z,54.22
2022-09-21T22:12:28.879Z,54.65
2022-09-21T22:15:00.144Z,54.45
2022-09-21T22:17:27.749Z,54.42
2022-09-21T22:19:57.326Z,54.33
2022-09-21T22:22:25.469Z,54.50
2022-09-21T22:24:52.827Z,54.06
2022-09-21T22:27:20.160Z,53.62
2022-09-21T22:29:48.744Z,53.77
2022-09-21T22:32:16.765Z,54.38
2022-09-21T22:34:44.273Z,53.67
2022-09-21T22:37:12.143Z,53.62
2022-09-21T22:39:39.496Z,53.70
2022-09-21T22:42:07.863Z,53.59
2022-09-21T22:44:35.640Z,53.58
2022-09-21T22:47:03.111Z,53.53
2022-09-21T22:49:30.598Z,53.85
2022-09-21T22:51:59.961Z,53.40
2022-09-21T22:54:28.291Z,53.85
2022-09-21T22:56:55.927Z,53.51
2022-09-21T22:59:23.690Z,53.85
2022-09-21T23:01:51.142Z,53.80
2022-09-21T23:04:18.902Z,53.96
2022-09-21T23:06:46.686Z,53.85
2022-09-21T23:09:20.595Z,54.29
2022-09-21T23:11:53.875Z,54.22
2022-09-21T23:14:24.700Z,53.99
2022-09-21T23:16:53.715Z,53.38
2022-09-21T23:19:21.359Z,53.84
2022-09-21T23:21:50.499Z,53.98
2022-09-21T23:24:19.023Z,53.77
2022-09-21T23:26:48.127Z,53.59
2022-09-21T23:29:16.543Z,53.30
2022-09-21T23:31:46.023Z,53.48
2022-09-21T23:34:17.409Z,53.63
2022-09-21T23:36:46.238Z,53.54
2022-09-21T23:39:16.186Z,53.42
2022-09-21T23:41:44.385Z,54.05
2022-09-21T23:44:11.814Z,53.69
2022-09-21T23:46:40.952Z,53.75
2022-09-21T23:49:09.494Z,54.04
2022-09-21T23:51:36.915Z,54.00
2022-09-21T23:54:05.331Z,54.02
2022-09-21T23:56:35.202Z,54.13
2022-09-21T23:59:02.970Z,54.21
